Date,TemperatureHighF,TemperatureAvgF,TemperatureLowF,DewpointHighF,DewpointAvgF,DewpointLowF,HumidityHigh,HumidityAvg,HumidityLow,PressureMaxIn,PressureMinIn,WindSpeedMaxMPH,WindSpeedAvgMPH,GustSpeedMaxMPH,PrecipitationSumIn
2013-1-1,33,27,27,17,16,10,67,64,42,30.00,29.91,7,4,7,0.05
2013-1-2,53,30,16,15,6,-12,76,45,10,29.97,29.85,100,5,100,0.00
2013-1-3,49,30,16,11,4,-15,64,38,12,30.04,29.90,18,7,18,0.00
2013-1-4,56,32,16,11,1,-17,71,37,10,30.06,29.97,10,3,10,0.00
2013-1-5,63,36,16,10,2,-17,61,33,10,30.11,30.01,10,3,10,0.00
2013-1-6,62,35,24,17,7,-10,56,39,10,30.01,29.74,22,5,22,0.00
2013-1-7,52,34,24,18,16,10,69,49,25,29.79,29.71,14,4,14,0.00
2013-1-10,54,41,28,29,18,5,72,41,25,29.84,29.55,32,14,32,0.00
2013-1-11,38,27,14,38,9,-16,78,43,10,29.78,29.62,17,8,17,0.00
2013-1-12,38,23,12,16,3,-3,72,45,17,29.81,29.71,12,4,12,0.00
2013-1-13,40,22,8,3,-1,-10,65,40,13,29.83,29.72,12,4,12,0.00
2013-1-14,35,19,8,8,-1,-8,71,44,19,29.96,29.76,23,8,23,0.00
2013-1-15,42,24,8,6,-3,-10,51,33,13,30.12,29.96,23,11,23,0.00
2013-1-16,57,36,18,14,10,-1,62,39,13,30.14,30.04,10,3,10,0.00
2013-1-17,65,38,23,15,9,-6,62,39,10,30.14,30.03,13,4,13,0.00
2013-1-18,68,40,22,19,10,-5,65,38,10,30.11,29.99,12,3,12,0.00
2013-1-19,64,41,21,20,10,-8,71,37,10,30.12,30.02,11,3,11,0.00
2013-1-20,70,42,21,16,4,-16,64,31,10,30.07,29.95,11,3,11,0.00
2013-1-21,67,43,24,14,0,-16,57,26,10,30.05,29.96,15,4,15,0.00
2013-1-22,76,46,24,19,2,-10,47,25,10,30.08,30.01,12,3,12,0.00
2013-1-23,72,47,30,21,8,-4,51,27,10,30.11,30.01,12,3,12,0.00
2013-1-24,55,46,41,49,34,14,99,69,29,30.09,30.01,14,4,14,0.15
2013-1-25,62,48,40,50,45,40,99,90,61,30.06,29.89,9,2,9,0.21
2013-1-26,53,47,43,50,47,42,99,98,92,29.90,29.71,21,6,21,0.77
2013-1-27,56,47,41,47,42,36,95,84,70,29.82,29.71,27,14,27,0.06
2013-1-28,46,33,20,42,28,17,97,85,52,29.78,29.66,29,9,29,0.12
2013-1-29,45,30,18,28,19,12,92,67,36,29.98,29.76,32,6,32,0.05
2013-1-30,58,38,23,29,23,17,85,60,29,30.09,29.98,12,4,12,0.00
2013-1-31,63,43,28,33,25,6,87,57,14,30.06,29.98,13,3,13,0.00
2013-2-1,71,46,27,29,21,1,83,49,10,30.06,29.99,11,3,11,0.00
2013-2-2,71,54,43,26,16,-1,50,28,10,30.12,30.01,8,2,8,0.00
2013-2-3,56,45,35,39,34,25,91,67,50,30.04,29.85,11,2,11,0.00
2013-2-4,73,45,29,39,26,0,96,58,10,29.94,29.84,11,3,11,0.00
2013-2-5,57,37,29,31,25,23,78,66,35,29.91,29.87,5,2,5,0.00
2013-2-6,60,46,35,38,31,28,84,58,29,29.89,29.78,17,5,17,0.00
2013-2-7,66,47,29,33,27,18,88,50,25,29.95,29.78,18,6,18,0.00
2013-2-8,53,45,37,36,26,13,66,50,29,29.79,29.61,42,20,42,0.00
2013-2-9,37,32,31,31,28,25,89,86,81,29.70,29.66,21,12,21,0.02
2013-2-10,43,32,24,32,26,20,96,81,62,29.77,29.70,22,8,22,0.02
2013-2-11,47,30,24,32,22,11,96,74,32,29.91,29.75,21,3,21,0.04
2013-2-12,51,32,16,20,12,-15,84,51,12,30.02,29.91,13,4,13,0.00
2013-2-13,58,38,24,23,17,-28,76,49,21,30.00,29.92,25,5,25,0.00
2013-2-14,62,42,28,27,20,9,77,47,20,30.03,29.93,29,7,29,0.00
2013-2-15,60,39,28,24,17,-7,70,49,11,30.12,30.03,15,4,15,0.00
2013-2-16,62,54,49,9,1,-8,20,15,10,30.14,30.03,11,5,11,0.00
2013-2-17,65,50,27,61,39,4,62,25,10,29.89,29.70,28,9,28,0.00
2013-2-18,60,55,54,60,9,-5,18,15,10,29.89,29.71,17,4,20,0.00
2013-2-19,59,56,54,-2,-5,-9,12,11,10,29.61,29.60,29,20,29,0.00
2013-2-21,55,41,38,31,24,-8,65,54,10,29.75,29.60,22,12,23,0.01
2013-2-23,56,41,31,25,18,10,75,43,23,29.76,29.65,34,14,34,0.01
2013-2-24,44,30,24,24,11,-6,83,51,18,29.77,29.68,42,15,42,0.00
2013-2-25,58,49,34,9,-6,-10,36,15,10,29.97,29.75,24,9,31,0.02
2013-2-26,50,48,48,-8,-8,-8,11,11,11,29.85,29.84,25,18,25,0.02
2013-2-28,53,51,50,-8,-8,-8,11,11,11,30.11,30.09,11,7,11,0.02
2013-3-1,74,56,42,74,34,10,46,24,11,30.15,30.08,8,2,8,0.02
2013-3-2,77,56,31,77,28,1,65,27,10,30.17,29.99,17,5,17,0.00
2013-3-3,68,51,39,28,18,0,55,33,12,30.00,29.78,27,7,27,0.00
2013-3-4,69,51,36,29,22,12,61,36,16,29.82,29.75,21,6,21,0.00
2013-3-5,64,48,31,31,24,17,81,45,17,30.00,29.88,18,6,18,0.00
2013-3-6,67,53,40,67,26,10,63,36,12,29.90,29.79,24,9,24,0.00
2013-3-7,65,50,34,65,22,5,66,35,10,29.81,29.73,27,10,27,0.00
2013-3-8,50,38,30,39,32,25,97,81,39,29.73,29.58,30,11,30,0.14
2013-3-9,42,34,29,38,32,28,98,92,84,29.81,29.69,24,12,24,0.02
2013-3-11,71,67,63,5,2,-2,12,10,10,29.94,29.92,11,5,11,0.02
2013-3-12,73,70,69,2,2,2,10,10,10,29.96,29.92,15,5,15,0.02
2013-3-15,84,79,71,3,3,3,10,10,10,29.95,29.93,20,12,20,0.02
2013-3-16,78,74,70,5,3,3,11,10,10,29.74,29.71,22,15,22,0.02
2013-3-18,74,72,71,7,7,7,12,12,12,29.86,29.84,20,13,20,0.02
2013-3-19,70,68,67,8,7,0,13,12,11,29.89,29.88,8,7,8,0.02
2013-3-20,68,56,40,32,26,16,61,35,14,29.95,29.74,23,9,23,0.00
2013-3-21,75,59,43,75,42,-8,59,26,10,29.74,29.65,19,6,19,0.00
2013-3-22,69,52,34,69,31,-13,37,15,10,29.71,29.62,18,6,18,0.00
2013-3-23,54,44,31,43,-7,-16,31,13,10,29.89,29.71,27,13,27,0.00
2013-3-24,65,58,54,-16,-16,-16,10,10,10,29.88,29.80,17,8,17,0.00
2013-3-26,76,61,44,17,4,-16,31,14,10,29.83,29.76,35,14,35,0.00
2013-3-27,74,55,36,21,9,-3,51,21,10,29.88,29.78,27,7,27,0.00
2013-3-28,75,56,36,26,15,-1,55,27,10,29.96,29.86,29,8,29,0.00
2013-3-29,82,55,37,28,21,9,64,35,14,30.01,29.92,17,4,17,0.00
2013-4-1,73,66,60,13,7,0,16,13,10,29.92,29.82,25,18,25,0.00
2013-4-2,72,54,32,72,24,8,64,30,10,29.88,29.78,18,7,18,0.00
2013-4-3,78,58,43,78,34,4,54,30,10,29.96,29.88,14,6,14,0.00
2013-4-4,79,59,38,79,35,11,56,24,10,29.99,29.88,20,6,20,0.00
2013-4-5,74,62,50,74,32,9,41,23,10,29.87,29.78,24,11,24,0.00
2013-4-6,76,61,43,76,29,11,55,27,10,29.87,29.77,19,7,19,0.00
2013-4-7,75,56,39,75,30,14,62,35,10,29.82,29.65,20,7,20,0.00
2013-4-8,56,54,52,36,33,29,55,46,38,29.63,29.40,42,22,42,0.00
2013-4-9,56,44,36,33,24,15,80,49,25,29.77,29.44,29,12,29,0.00
2013-4-10,65,50,32,22,5,-8,55,22,10,29.88,29.76,31,8,31,0.00
2013-4-11,73,54,35,20,8,-6,50,23,10,29.86,29.70,24,7,24,0.00
2013-4-12,76,53,35,21,11,0,54,27,10,29.77,29.72,18,3,18,0.00
2013-4-13,76,63,41,74,23,-2,44,17,10,29.77,29.62,32,14,32,0.00
2013-4-14,78,62,50,35,20,2,44,25,10,29.67,29.57,35,18,35,0.00
2013-4-15,70,57,44,40,31,21,64,41,23,29.65,29.57,44,20,44,0.00
2013-4-16,65,52,37,40,23,-8,70,40,10,29.66,29.56,45,20,45,0.00
2013-4-17,59,44,31,30,9,-13,84,36,10,29.92,29.66,31,12,31,0.00
2013-4-18,66,45,30,15,-3,-15,36,20,10,30.03,29.91,29,10,29,0.00
2013-4-19,73,52,28,15,-3,-10,53,18,10,30.05,29.85,30,6,30,0.00
2013-4-20,75,51,36,17,4,-2,36,19,11,29.89,29.84,30,5,30,0.00
2013-4-21,80,62,42,80,40,1,28,15,10,29.96,29.86,21,6,21,0.00
2013-4-22,80,66,49,80,44,7,28,14,10,29.89,29.74,24,10,24,0.00
2013-4-23,79,62,43,63,50,-16,34,15,10,29.87,29.73,29,9,29,0.00
2013-4-24,70,45,33,4,-11,-21,30,14,10,29.86,29.81,8,2,8,0.00
2013-4-25,73,59,44,73,27,9,43,23,10,29.93,29.79,18,8,18,0.00
2013-4-26,78,61,42,78,38,12,62,29,10,30.03,29.94,18,5,18,0.00
2013-4-27,81,61,44,81,47,13,36,25,22,30.04,29.98,20,4,20,0.00
2013-4-28,87,83,80,77,77,77,22,22,22,29.87,29.85,14,8,14,0.00
2013-4-29,89,87,87,77,77,77,22,22,22,29.75,29.73,22,14,22,0.00
2013-4-30,89,81,78,77,77,77,22,22,22,29.71,29.69,41,24,41,0.00
2013-5-1,81,73,52,15,4,3,24,14,13,29.90,29.83,24,7,24,0.00
2013-5-2,69,65,62,3,3,3,13,13,13,30.12,30.09,27,17,27,0.00
2013-5-4,84,76,69,3,3,3,13,13,13,29.76,29.68,27,10,27,0.00
2013-5-5,77,65,55,23,9,-3,27,15,10,29.82,29.68,28,14,28,0.00
2013-5-6,72,57,48,38,29,6,46,37,17,29.86,29.77,33,13,33,0.00
2013-5-7,69,62,57,37,32,25,46,34,26,29.85,29.79,35,22,35,0.00
2013-5-8,72,69,68,17,13,7,17,15,12,29.87,29.86,14,6,14,0.01
2013-6-15,91,80,64,91,62,21,33,18,10,29.89,29.83,24,10,24,0.00
2013-6-16,94,78,63,94,58,18,30,16,10,29.95,29.88,22,9,22,0.00
2013-6-17,91,76,57,91,57,6,29,21,10,29.94,29.86,24,9,24,0.00
2013-6-18,91,77,56,91,63,5,18,13,10,29.88,29.77,27,9,27,0.00
2013-6-19,89,78,62,89,61,8,20,15,10,29.78,29.73,30,14,30,0.00
2013-6-20,88,73,55,88,53,14,25,16,13,29.81,29.75,28,12,28,0.00
2013-6-21,92,81,57,34,9,1,32,11,10,29.86,29.78,33,15,33,0.00
2013-6-22,95,76,55,22,14,2,26,13,10,29.87,29.77,30,9,30,0.00
2013-6-23,92,75,23,25,11,4,29,14,10,29.82,29.72,34,11,34,0.00
2013-6-24,89,74,61,36,15,-2,33,15,10,29.85,29.73,37,14,37,0.00
2013-6-25,94,76,55,26,12,1,32,13,10,29.93,29.84,27,9,27,0.00
2013-6-26,99,80,59,25,9,1,28,13,10,30.01,29.93,24,7,24,0.00
2013-6-27,102,83,-37,32,22,7,33,16,10,30.07,29.96,19,5,19,0.00
2013-6-28,115,87,65,32,15,5,23,12,10,30.01,29.89,26,8,26,0.00
2013-6-29,107,86,66,40,23,14,37,16,11,29.95,29.83,30,5,30,0.00
2013-6-30,108,87,68,42,33,19,39,21,10,29.92,29.82,27,5,27,0.00
2013-7-1,102,79,69,100,51,36,55,35,11,29.94,29.88,11,6,11,0.00
2013-7-2,86,77,70,54,49,46,45,37,30,30.01,29.91,14,5,14,0.00
2013-7-3,101,81,70,100,72,57,64,46,10,29.86,29.84,14,13,14,0.01
2013-7-4,96,92,87,45,41,35,23,18,12,29.87,29.79,17,13,17,0.00
2013-7-6,96,96,96,37,37,37,13,13,13,29.84,29.78,10,10,10,0.00
2013-7-7,105,92,86,43,25,17,20,12,10,29.90,29.79,27,9,27,0.00
2013-7-8,103,92,86,29,23,16,14,12,10,29.98,29.87,19,7,22,0.00
2013-7-9,98,96,95,34,26,21,15,12,10,30.05,29.91,16,11,16,0.00
2013-7-10,95,95,95,33,33,33,15,15,15,29.99,29.88,11,11,11,0.00
2013-7-11,95,95,95,33,33,33,15,15,15,29.98,29.86,11,11,11,0.00
2013-7-12,95,95,95,33,33,33,15,15,15,29.95,29.89,11,11,11,0.00
2013-7-13,95,86,68,62,46,33,74,34,15,29.99,29.89,17,8,17,0.31
2013-7-14,81,72,63,61,58,47,85,62,39,29.97,29.87,13,1,13,0.00
2013-7-15,90,81,62,57,51,45,76,42,25,29.90,29.83,11,4,11,0.00
2013-7-16,90,66,62,63,60,48,97,85,27,29.93,29.87,6,2,6,0.00
2013-8-26,72,66,62,67,64,61,99,93,78,29.98,29.90,17,3,17,1.28
2013-8-27,63,62,62,63,62,59,99,99,96,29.97,29.92,8,3,8,0.02
2013-8-28,95,77,59,63,57,47,96,56,22,29.99,29.89,22,4,22,0.00
2013-8-29,94,72,61,68,61,56,93,71,32,30.07,29.98,31,4,31,0.02
2013-8-30,88,69,62,67,64,58,99,85,42,30.08,29.97,21,3,21,0.17
2013-8-31,72,66,63,65,63,60,99,92,73,29.99,29.91,13,2,13,0.11
2013-9-1,91,71,61,67,62,58,99,79,33,29.96,29.91,16,2,16,0.00
2013-9-2,94,75,60,65,58,48,99,64,22,29.98,29.87,15,4,15,0.01
2013-9-3,95,76,60,67,58,49,93,58,22,29.99,29.90,19,5,19,0.05
2013-9-4,94,74,63,62,56,51,85,58,26,30.01,29.92,15,4,15,0.00
2013-9-5,97,81,60,63,48,31,88,35,13,30.02,29.92,24,6,24,0.00
2013-9-6,94,77,66,61,52,37,83,46,17,30.00,29.88,48,7,48,0.06
2013-9-7,66,62,61,59,58,53,88,84,74,29.99,29.89,10,1,10,0.00
2013-9-8,75,57,-1,64,49,-44,96,80,10,29.91,29.81,26,3,26,0.12
2013-9-9,72,64,59,68,60,54,99,90,74,29.84,29.75,22,5,22,0.19
2013-9-10,72,69,58,68,66,58,99,91,88,29.89,29.78,8,5,8,0.27
2013-9-11,72,66,57,61,60,57,99,81,64,29.96,29.87,11,5,11,0.02
2013-9-12,70,69,61,61,60,51,74,72,58,29.95,29.83,7,6,11,0.06
2013-9-13,93,70,60,54,49,37,76,54,16,29.86,29.73,11,3,11,0.00
2013-9-14,91,70,57,58,51,41,80,55,19,29.81,29.73,23,5,23,0.01
2013-9-15,92,66,56,55,49,32,84,62,15,29.88,29.80,14,2,14,0.00
2013-9-16,90,78,57,55,48,42,80,41,19,29.92,29.82,11,4,11,0.00
2013-9-17,90,90,90,42,42,42,19,19,19,29.86,29.73,7,7,7,0.00
2013-9-18,90,90,90,42,42,42,19,19,19,29.79,29.73,7,7,7,0.00
2013-9-19,90,90,90,42,42,42,19,19,19,29.83,29.77,7,7,7,0.00
2013-9-20,90,90,90,42,42,42,19,19,19,29.88,29.81,7,7,7,0.00
2013-9-21,90,90,90,42,42,42,19,19,19,29.86,29.70,7,7,7,0.00
2013-9-22,90,90,90,42,42,42,19,19,19,29.79,29.62,7,7,7,0.00
2013-9-23,90,90,90,42,42,42,19,19,19,29.92,29.79,7,7,7,0.00
2013-9-24,90,90,90,42,42,42,19,19,19,29.96,29.80,7,7,7,0.00
2013-9-25,90,90,90,42,42,42,19,19,19,29.81,29.63,7,7,7,0.00
2013-9-26,90,82,59,42,36,18,27,19,15,29.72,29.59,34,12,34,0.02
2013-9-27,69,69,69,28,28,28,21,21,21,29.94,29.72,9,9,9,0.00
2013-9-28,69,69,52,28,28,18,32,21,21,30.03,29.93,9,9,9,0.00
2013-9-29,82,62,41,26,20,13,54,23,10,30.05,29.93,17,5,17,0.00
2013-9-30,88,65,41,30,23,17,60,24,10,29.96,29.85,18,5,18,0.00
2013-10-11,71,56,42,40,34,18,80,49,16,29.91,29.83,11,2,11,0.00
2013-10-12,77,55,36,40,33,21,88,51,15,29.90,29.79,23,5,23,0.00
2013-10-13,72,52,45,34,32,27,63,48,24,29.84,29.79,33,8,33,0.00
2013-10-14,71,66,51,32,20,8,44,18,10,29.96,29.87,11,7,11,0.00
2013-10-15,72,70,65,26,17,16,21,13,13,29.90,29.81,12,8,12,0.00
2013-10-16,71,60,43,31,20,9,57,26,10,29.99,29.91,13,4,13,0.00
2013-10-17,79,52,43,29,24,12,57,40,10,29.97,29.83,14,4,14,0.00
2013-10-18,64,46,38,24,20,15,47,36,17,29.96,29.87,10,4,10,0.00
2013-10-21,69,67,64,20,14,11,18,13,11,29.95,29.94,7,4,7,0.00
2013-10-22,79,63,40,23,17,11,45,21,10,30.01,29.91,12,4,12,0.00
2013-10-23,78,78,74,17,17,14,10,10,10,29.91,29.84,13,10,13,0.00
2013-10-25,76,74,70,18,16,15,13,11,10,29.99,29.94,12,8,12,0.00
2013-10-26,76,76,76,15,15,15,10,10,10,30.08,30.08,6,6,6,0.00
2013-10-27,76,70,60,32,28,20,33,22,12,29.92,29.79,13,6,13,0.00
2013-10-28,76,76,76,20,20,20,12,12,12,29.70,29.67,13,13,13,0.00
2013-11-1,38,38,38,24,24,24,59,59,59,29.98,29.98,0,0,0,0.00
2013-11-2,55,55,55,9,9,9,16,16,16,29.82,29.82,4,4,4,0.00
2013-11-3,70,58,43,27,22,18,47,27,16,29.78,29.71,25,10,25,0.00
2013-11-4,65,48,32,27,22,17,66,40,20,29.76,29.66,21,5,21,0.00
2013-11-5,60,48,34,30,18,1,81,35,10,30.02,29.76,13,7,13,0.00
2013-11-6,71,55,41,12,2,-9,25,12,10,30.15,30.08,9,4,9,0.00
2013-11-7,68,52,34,9,4,-1,28,15,10,30.14,30.05,11,5,12,0.00
2013-11-8,67,67,67,8,8,8,10,10,10,30.00,30.00,8,8,8,0.00